Terminal Aerodrome Forecast
Issued by NWS

Home | Current Version | Previous Version | Graphics & Text | Print | Product List | Glossary On
Versions: 1 2 3 4 5 6 7 8 9 10 11 12 13 14 15 16 17 18 19 20 21 22
000
FTUS43 KGRB 261700 RRA
TAFAUW
TAF
KAUW 261741Z 2618/2718 07003KT 5SM BR BKN005
      TEMPO 2618/2620 SCT005 BKN015
     FM262000 02003KT 6SM BR SCT008
     FM270100 02004KT 5SM BR OVC009
     FM270800 01005KT 2SM -SN BR OVC008
      TEMPO 2712/2716 1SM -SN BR OVC005=

USA.gov is the U.S. government's official web portal to all federal, state and local government web resources and services.